sensor_id;sensor_type;location;lat;lon;timestamp;pressure;altitude;pressure_sealevel;temperature;humidity
46412;BME280;32113;42.012;24.870;2024-03-08T00:01:13;99177.28;;;9.77;76.66
46412;BME280;32113;42.012;24.870;2024-03-08T00:03:39;99177.28;;;9.81;76.74
46412;BME280;32113;42.012;24.870;2024-03-08T00:06:05;99171.28;;;9.81;77.04
46412;BME280;32113;42.012;24.870;2024-03-08T00:08:31;99172.16;;;9.78;77.67
46412;BME280;32113;42.012;24.870;2024-03-08T00:10:57;99163.59;;;9.79;77.38
46412;BME280;32113;42.012;24.870;2024-03-08T00:13:22;99162.78;;;9.79;77.32
46412;BME280;32113;42.012;24.870;2024-03-08T00:15:49;99167.06;;;9.73;77.25
46412;BME280;32113;42.012;24.870;2024-03-08T00:18:15;99165.34;;;9.80;77.53
46412;BME280;32113;42.012;24.870;2024-03-08T00:20:40;99159.34;;;9.80;77.04
46412;BME280;32113;42.012;24.870;2024-03-08T00:23:06;99158.50;;;9.76;76.67
46412;BME280;32113;42.012;24.870;2024-03-08T00:25:31;99164.47;;;9.78;76.59
46412;BME280;32113;42.012;24.870;2024-03-08T00:27:57;99161.09;;;9.75;77.04
46412;BME280;32113;42.012;24.870;2024-03-08T00:30:23;99161.94;;;9.75;77.35
46412;BME280;32113;42.012;24.870;2024-03-08T00:32:50;99161.91;;;9.80;77.24
46412;BME280;32113;42.012;24.870;2024-03-08T00:35:15;99161.91;;;9.83;76.62
46412;BME280;32113;42.012;24.870;2024-03-08T00:37:41;99169.59;;;9.77;76.21
46412;BME280;32113;42.012;24.870;2024-03-08T00:40:12;99159.38;;;9.73;75.92
46412;BME280;32113;42.012;24.870;2024-03-08T00:42:37;99164.50;;;9.72;75.46
46412;BME280;32113;42.012;24.870;2024-03-08T00:45:05;99162.84;;;9.62;76.80
46412;BME280;32113;42.012;24.870;2024-03-08T00:47:30;99167.97;;;9.60;77.21
46412;BME280;32113;42.012;24.870;2024-03-08T00:49:56;99169.69;;;9.64;77.69
46412;BME280;32113;42.012;24.870;2024-03-08T00:52:22;99160.25;;;9.69;77.26
46412;BME280;32113;42.012;24.870;2024-03-08T00:54:49;99168.81;;;9.68;77.43
46412;BME280;32113;42.012;24.870;2024-03-08T00:57:14;99160.25;;;9.68;77.43
46412;BME280;32113;42.012;24.870;2024-03-08T00:59:40;99156.81;;;9.72;77.31
46412;BME280;32113;42.012;24.870;2024-03-08T01:02:05;99149.13;;;9.75;76.98
46412;BME280;32113;42.012;24.870;2024-03-08T01:04:31;99159.38;;;9.73;77.38
46412;BME280;32113;42.012;24.870;2024-03-08T01:06:58;99156.81;;;9.70;77.68
46412;BME280;32113;42.012;24.870;2024-03-08T01:09:25;99144.88;;;9.69;77.78
46412;BME280;32113;42.012;24.870;2024-03-08T01:11:52;99150.00;;;9.69;77.53
46412;BME280;32113;42.012;24.870;2024-03-08T01:14:19;99149.09;;;9.77;76.81
46412;BME280;32113;42.012;24.870;2024-03-08T01:16:47;99154.22;;;9.78;77.04
46412;BME280;32113;42.012;24.870;2024-03-08T01:19:12;99149.97;;;9.76;76.55
46412;BME280;32113;42.012;24.870;2024-03-08T01:21:38;99148.28;;;9.75;76.32
46412;BME280;32113;42.012;24.870;2024-03-08T01:24:04;99147.44;;;9.69;76.12
46412;BME280;32113;42.012;24.870;2024-03-08T01:26:30;99159.41;;;9.69;76.31
46412;BME280;32113;42.012;24.870;2024-03-08T01:28:55;99160.25;;;9.69;76.79
46412;BME280;32113;42.012;24.870;2024-03-08T01:31:21;99163.66;;;9.70;76.15
46412;BME280;32113;42.012;24.870;2024-03-08T01:33:46;99156.84;;;9.67;76.70
46412;BME280;32113;42.012;24.870;2024-03-08T01:36:12;99163.69;;;9.65;76.42
46412;BME280;32113;42.012;24.870;2024-03-08T01:38:42;99168.78;;;9.70;76.57
46412;BME280;32113;42.012;24.870;2024-03-08T01:41:07;99162.81;;;9.71;76.10
46412;BME280;32113;42.012;24.870;2024-03-08T01:43:34;99158.56;;;9.64;76.86
46412;BME280;32113;42.012;24.870;2024-03-08T01:45:59;99161.13;;;9.67;76.44
46412;BME280;32113;42.012;24.870;2024-03-08T01:48:27;99156.88;;;9.63;77.06
46412;BME280;32113;42.012;24.870;2024-03-08T01:50:55;99151.75;;;9.64;77.15
46412;BME280;32113;42.012;24.870;2024-03-08T01:53:22;99155.13;;;9.63;77.29
46412;BME280;32113;42.012;24.870;2024-03-08T01:55:48;99155.13;;;9.66;77.00
46412;BME280;32113;42.012;24.870;2024-03-08T01:58:15;99156.81;;;9.69;77.18
46412;BME280;32113;42.012;24.870;2024-03-08T02:00:42;99161.13;;;9.65;77.01
46412;BME280;32113;42.012;24.870;2024-03-08T02:03:09;99162.00;;;9.63;76.78
46412;BME280;32113;42.012;24.870;2024-03-08T02:05:36;99160.31;;;9.57;77.49
46412;BME280;32113;42.012;24.870;2024-03-08T02:08:01;99166.28;;;9.59;77.70
46412;BME280;32113;42.012;24.870;2024-03-08T02:10:28;99163.69;;;9.62;77.60
46412;BME280;32113;42.012;24.870;2024-03-08T02:12:54;99162.81;;;9.65;77.08
46412;BME280;32113;42.012;24.870;2024-03-08T02:15:20;99161.13;;;9.65;76.67
46412;BME280;32113;42.012;24.870;2024-03-08T02:17:46;99158.56;;;9.60;77.28
46412;BME280;32113;42.012;24.870;2024-03-08T02:20:12;99167.16;;;9.55;77.34
46412;BME280;32113;42.012;24.870;2024-03-08T02:22:38;99162.03;;;9.55;77.88
46412;BME280;32113;42.012;24.870;2024-03-08T02:25:04;99162.00;;;9.59;77.23
46412;BME280;32113;42.012;24.870;2024-03-08T02:27:31;99161.16;;;9.59;77.86
46412;BME280;32113;42.012;24.870;2024-03-08T02:29:57;99160.31;;;9.55;78.00
46412;BME280;32113;42.012;24.870;2024-03-08T02:32:25;99167.16;;;9.55;77.77
46412;BME280;32113;42.012;24.870;2024-03-08T02:34:50;99167.16;;;9.55;77.99
46412;BME280;32113;42.012;24.870;2024-03-08T02:37:16;99164.59;;;9.53;77.88
46412;BME280;32113;42.012;24.870;2024-03-08T02:39:42;99167.16;;;9.56;77.90
46412;BME280;32113;42.012;24.870;2024-03-08T02:42:08;99168.84;;;9.59;77.45
46412;BME280;32113;42.012;24.870;2024-03-08T02:44:33;99172.28;;;9.56;77.28
46412;BME280;32113;42.012;24.870;2024-03-08T02:46:59;99165.44;;;9.55;77.86
46412;BME280;32113;42.012;24.870;2024-03-08T02:49:25;99166.28;;;9.51;78.05
46412;BME280;32113;42.012;24.870;2024-03-08T02:51:54;99167.16;;;9.49;77.91
46412;BME280;32113;42.012;24.870;2024-03-08T02:54:22;99166.28;;;9.53;77.64
46412;BME280;32113;42.012;24.870;2024-03-08T02:56:49;99169.75;;;9.47;78.36
46412;BME280;32113;42.012;24.870;2024-03-08T02:59:17;99171.44;;;9.50;78.50
46412;BME280;32113;42.012;24.870;2024-03-08T03:01:44;99165.47;;;9.46;78.57
46412;BME280;32113;42.012;24.870;2024-03-08T03:04:09;99164.63;;;9.45;78.38
46412;BME280;32113;42.012;24.870;2024-03-08T03:06:34;99165.50;;;9.44;78.72
46412;BME280;32113;42.012;24.870;2024-03-08T03:09:01;99165.50;;;9.41;78.66
46412;BME280;32113;42.012;24.870;2024-03-08T03:11:26;99164.63;;;9.47;78.35
46412;BME280;32113;42.012;24.870;2024-03-08T03:13:52;99167.19;;;9.42;78.18
46412;BME280;32113;42.012;24.870;2024-03-08T03:16:18;99168.03;;;9.46;77.18
46412;BME280;32113;42.012;24.870;2024-03-08T03:18:47;99166.38;;;9.39;77.75
46412;BME280;32113;42.012;24.870;2024-03-08T03:21:15;99170.66;;;9.35;78.13
46412;BME280;32113;42.012;24.870;2024-03-08T03:23:40;99176.59;;;9.34;78.59
46412;BME280;32113;42.012;24.870;2024-03-08T03:26:08;99170.63;;;9.37;78.68
46412;BME280;32113;42.012;24.870;2024-03-08T03:28:33;99180.03;;;9.38;78.68
46412;BME280;32113;42.012;24.870;2024-03-08T03:30:59;99178.31;;;9.38;78.47
46412;BME280;32113;42.012;24.870;2024-03-08T03:33:25;99180.03;;;9.33;79.00
46412;BME280;32113;42.012;24.870;2024-03-08T03:35:50;99182.59;;;9.33;78.38
46412;BME280;32113;42.012;24.870;2024-03-08T03:38:17;99186.84;;;9.36;78.70
46412;BME280;32113;42.012;24.870;2024-03-08T03:40:45;99185.16;;;9.36;78.50
46412;BME280;32113;42.012;24.870;2024-03-08T03:43:11;99187.72;;;9.36;78.12
46412;BME280;32113;42.012;24.870;2024-03-08T03:45:36;99186.00;;;9.32;78.63
46412;BME280;32113;42.012;24.870;2024-03-08T03:48:06;99194.53;;;9.37;78.36
46412;BME280;32113;42.012;24.870;2024-03-08T03:50:34;99186.84;;;9.40;77.82
46412;BME280;32113;42.012;24.870;2024-03-08T03:52:59;99187.69;;;9.42;77.80
46412;BME280;32113;42.012;24.870;2024-03-08T03:55:25;99182.56;;;9.42;77.94
46412;BME280;32113;42.012;24.870;2024-03-08T03:57:50;99187.69;;;9.39;77.95
46412;BME280;32113;42.012;24.870;2024-03-08T04:00:16;99188.56;;;9.35;77.79
46412;BME280;32113;42.012;24.870;2024-03-08T04:02:41;99186.84;;;9.34;77.75
46412;BME280;32113;42.012;24.870;2024-03-08T04:05:08;99186.84;;;9.32;77.83
46412;BME280;32113;42.012;24.870;2024-03-08T04:07:35;99191.13;;;9.32;78.40
46412;BME280;32113;42.012;24.870;2024-03-08T04:10:04;99195.41;;;9.25;77.65
46412;BME280;32113;42.012;24.870;2024-03-08T04:12:32;99192.03;;;9.22;78.37
46412;BME280;32113;42.012;24.870;2024-03-08T04:14:57;99200.53;;;9.20;78.06
46412;BME280;32113;42.012;24.870;2024-03-08T04:17:23;99192.84;;;9.24;78.12
46412;BME280;32113;42.012;24.870;2024-03-08T04:19:49;99197.97;;;9.24;78.11
46412;BME280;32113;42.012;24.870;2024-03-08T04:22:15;99196.28;;;9.24;77.60
46412;BME280;32113;42.012;24.870;2024-03-08T04:24:43;99198.03;;;9.06;77.92
46412;BME280;32113;42.012;24.870;2024-03-08T04:27:09;99199.72;;;9.06;78.40
46412;BME280;32113;42.012;24.870;2024-03-08T04:29:34;99203.13;;;9.06;78.01
46412;BME280;32113;42.012;24.870;2024-03-08T04:32:00;99204.88;;;9.03;78.08
46412;BME280;32113;42.012;24.870;2024-03-08T04:34:25;99203.13;;;9.05;78.26
46412;BME280;32113;42.012;24.870;2024-03-08T04:36:53;99209.13;;;9.07;78.04
46412;BME280;32113;42.012;24.870;2024-03-08T04:39:19;99204.84;;;9.09;77.89
46412;BME280;32113;42.012;24.870;2024-03-08T04:41:44;99208.25;;;9.06;77.90
46412;BME280;32113;42.012;24.870;2024-03-08T04:44:11;99198.00;;;9.02;77.43
46412;BME280;32113;42.012;24.870;2024-03-08T04:46:38;99206.56;;;9.04;77.94
46412;BME280;32113;42.012;24.870;2024-03-08T04:49:03;99204.00;;;9.04;78.54
46412;BME280;32113;42.012;24.870;2024-03-08T04:51:29;99208.28;;;9.00;78.53
46412;BME280;32113;42.012;24.870;2024-03-08T04:53:54;99209.13;;;9.02;78.21
46412;BME280;32113;42.012;24.870;2024-03-08T04:56:19;99212.53;;;9.04;78.01
46412;BME280;32113;42.012;24.870;2024-03-08T04:58:45;99211.69;;;9.05;77.24
46412;BME280;32113;42.012;24.870;2024-03-08T05:01:14;99217.66;;;8.95;77.43
46412;BME280;32113;42.012;24.870;2024-03-08T05:03:39;99220.22;;;8.93;77.50
46412;BME280;32113;42.012;24.870;2024-03-08T05:06:05;99216.81;;;8.91;78.05
46412;BME280;32113;42.012;24.870;2024-03-08T05:08:30;99213.41;;;8.89;78.00
46412;BME280;32113;42.012;24.870;2024-03-08T05:10:56;99225.31;;;8.97;77.93
46412;BME280;32113;42.012;24.870;2024-03-08T05:13:21;99224.47;;;8.93;77.82
46412;BME280;32113;42.012;24.870;2024-03-08T05:15:49;99220.19;;;8.97;77.76
46412;BME280;32113;42.012;24.870;2024-03-08T05:18:15;99227.03;;;9.01;77.19
46412;BME280;32113;42.012;24.870;2024-03-08T05:20:40;99231.31;;;8.99;77.30
46412;BME280;32113;42.012;24.870;2024-03-08T05:23:06;99242.41;;;8.98;77.25
46412;BME280;32113;42.012;24.870;2024-03-08T05:25:32;99232.16;;;8.91;77.37
46412;BME280;32113;42.012;24.870;2024-03-08T05:27:57;99248.34;;;8.87;77.23
46412;BME280;32113;42.012;24.870;2024-03-08T05:30:23;99250.94;;;8.90;77.19
46412;BME280;32113;42.012;24.870;2024-03-08T05:32:48;99250.06;;;8.93;77.52
46412;BME280;32113;42.012;24.870;2024-03-08T05:35:14;99251.78;;;8.96;77.74
46412;BME280;32113;42.012;24.870;2024-03-08T05:37:41;99250.09;;;8.98;77.45
46412;BME280;32113;42.012;24.870;2024-03-08T05:40:08;99259.47;;;9.00;77.40
46412;BME280;32113;42.012;24.870;2024-03-08T05:42:36;99255.19;;;9.02;76.72
46412;BME280;32113;42.012;24.870;2024-03-08T05:45:03;99263.72;;;8.97;76.94
46412;BME280;32113;42.012;24.870;2024-03-08T05:47:28;99265.41;;;9.02;76.74
46412;BME280;32113;42.012;24.870;2024-03-08T05:49:54;99269.69;;;8.99;76.64
46412;BME280;32113;42.012;24.870;2024-03-08T05:52:20;99269.69;;;8.99;76.46
46412;BME280;32113;42.012;24.870;2024-03-08T05:54:45;99271.41;;;8.93;76.33
46412;BME280;32113;42.012;24.870;2024-03-08T05:57:12;99269.72;;;8.91;76.42
46412;BME280;32113;42.012;24.870;2024-03-08T05:59:39;99273.09;;;8.90;77.00
46412;BME280;32113;42.012;24.870;2024-03-08T06:02:05;99278.25;;;8.88;76.58
46412;BME280;32113;42.012;24.870;2024-03-08T06:04:30;99275.66;;;8.85;76.61
46412;BME280;32113;42.012;24.870;2024-03-08T06:06:56;99280.78;;;8.93;76.49
46412;BME280;32113;42.012;24.870;2024-03-08T06:09:23;99286.75;;;8.93;76.60
46412;BME280;32113;42.012;24.870;2024-03-08T06:11:50;99285.91;;;8.96;76.51
46412;BME280;32113;42.012;24.870;2024-03-08T06:14:15;99290.16;;;8.97;76.50
46412;BME280;32113;42.012;24.870;2024-03-08T06:16:46;99290.16;;;8.99;76.28
46412;BME280;32113;42.012;24.870;2024-03-08T06:19:13;99292.72;;;8.94;76.37
46412;BME280;32113;42.012;24.870;2024-03-08T06:21:39;99291.84;;;8.97;76.42
46412;BME280;32113;42.012;24.870;2024-03-08T06:24:05;99298.72;;;8.98;75.85
46412;BME280;32113;42.012;24.870;2024-03-08T06:26:30;99300.41;;;8.96;76.15
46412;BME280;32113;42.012;24.870;2024-03-08T06:28:56;99298.69;;;9.01;75.79
46412;BME280;32113;42.012;24.870;2024-03-08T06:31:22;99299.53;;;8.98;76.00
46412;BME280;32113;42.012;24.870;2024-03-08T06:33:48;99299.53;;;8.97;76.26
46412;BME280;32113;42.012;24.870;2024-03-08T06:36:17;99305.50;;;8.92;76.33
46412;BME280;32113;42.012;24.870;2024-03-08T06:38:47;99294.44;;;8.93;76.85
46412;BME280;32113;42.012;24.870;2024-03-08T06:41:13;99304.69;;;8.95;76.88
46412;BME280;32113;42.012;24.870;2024-03-08T06:43:45;99311.50;;;8.98;77.23
46412;BME280;32113;42.012;24.870;2024-03-08T06:46:11;99314.91;;;9.01;77.18
46412;BME280;32113;42.012;24.870;2024-03-08T06:48:39;99314.06;;;9.02;76.96
46412;BME280;32113;42.012;24.870;2024-03-08T06:51:04;99320.03;;;9.03;76.74
46412;BME280;32113;42.012;24.870;2024-03-08T06:53:30;99318.31;;;9.08;75.92
46412;BME280;32113;42.012;24.870;2024-03-08T06:55:57;99320.03;;;9.07;76.16
46412;BME280;32113;42.012;24.870;2024-03-08T06:58:22;99320.88;;;9.11;76.26
46412;BME280;32113;42.012;24.870;2024-03-08T07:00:48;99326.00;;;9.10;76.42
46412;BME280;32113;42.012;24.870;2024-03-08T07:03:17;99324.28;;;9.13;76.46
46412;BME280;32113;42.012;24.870;2024-03-08T07:05:42;99331.13;;;9.17;75.72
46412;BME280;32113;42.012;24.870;2024-03-08T07:08:08;99334.53;;;9.15;75.18
46412;BME280;32113;42.012;24.870;2024-03-08T07:10:33;99331.13;;;9.16;75.17
46412;BME280;32113;42.012;24.870;2024-03-08T07:13:00;99326.00;;;9.11;75.61
46412;BME280;32113;42.012;24.870;2024-03-08T07:15:27;99331.13;;;9.14;75.59
46412;BME280;32113;42.012;24.870;2024-03-08T07:17:53;99335.38;;;9.15;75.76
46412;BME280;32113;42.012;24.870;2024-03-08T07:20:19;99332.81;;;9.15;75.53
46412;BME280;32113;42.012;24.870;2024-03-08T07:22:47;99332.00;;;9.16;75.34
46412;BME280;32113;42.012;24.870;2024-03-08T07:25:14;99328.53;;;9.11;75.28
46412;BME280;32113;42.012;24.870;2024-03-08T07:27:53;99330.25;;;9.07;75.45
46412;BME280;32113;42.012;24.870;2024-03-08T07:30:24;99341.34;;;9.05;75.61
46412;BME280;32113;42.012;24.870;2024-03-08T07:33:08;99338.78;;;9.05;75.93
46412;BME280;32113;42.012;24.870;2024-03-08T07:35:37;99337.09;;;9.02;75.73
46412;BME280;32113;42.012;24.870;2024-03-08T07:38:07;99337.09;;;9.04;75.70
46412;BME280;32113;42.012;24.870;2024-03-08T07:40:36;99340.50;;;9.06;75.81
46412;BME280;32113;42.012;24.870;2024-03-08T07:43:22;99336.25;;;9.08;75.64
46412;BME280;32113;42.012;24.870;2024-03-08T07:45:48;99334.53;;;9.10;75.53
46412;BME280;32113;42.012;24.870;2024-03-08T07:48:13;99337.09;;;9.15;75.27
46412;BME280;32113;42.012;24.870;2024-03-08T07:50:40;99339.66;;;9.13;75.78
46412;BME280;32113;42.012;24.870;2024-03-08T07:53:06;99342.22;;;9.19;75.69
46412;BME280;32113;42.012;24.870;2024-03-08T07:55:32;99340.50;;;9.22;76.05
46412;BME280;32113;42.012;24.870;2024-03-08T07:57:58;99341.34;;;9.24;76.21
46412;BME280;32113;42.012;24.870;2024-03-08T08:00:24;99339.63;;;9.27;75.47
46412;BME280;32113;42.012;24.870;2024-03-08T08:02:52;99342.22;;;9.32;75.16
46412;BME280;32113;42.012;24.870;2024-03-08T08:05:18;99343.06;;;9.37;75.04
46412;BME280;32113;42.012;24.870;2024-03-08T08:07:46;99347.31;;;9.38;74.97
46412;BME280;32113;42.012;24.870;2024-03-08T08:10:12;99343.06;;;9.37;75.34
46412;BME280;32113;42.012;24.870;2024-03-08T08:12:50;99351.59;;;9.33;75.26
46412;BME280;32113;42.012;24.870;2024-03-08T08:15:16;99349.88;;;9.38;74.76
46412;BME280;32113;42.012;24.870;2024-03-08T08:17:43;99348.19;;;9.40;74.82
46412;BME280;32113;42.012;24.870;2024-03-08T08:20:10;99349.88;;;9.41;74.69
46412;BME280;32113;42.012;24.870;2024-03-08T08:22:39;99349.88;;;9.48;74.80
46412;BME280;32113;42.012;24.870;2024-03-08T08:25:06;99358.41;;;9.54;78.18
46412;BME280;32113;42.012;24.870;2024-03-08T08:27:32;99356.69;;;9.58;75.57
46412;BME280;32113;42.012;24.870;2024-03-08T08:29:57;99362.69;;;9.57;75.01
46412;BME280;32113;42.012;24.870;2024-03-08T08:32:22;99355.00;;;9.58;74.49
46412;BME280;32113;42.012;24.870;2024-03-08T08:34:48;99355.00;;;9.52;74.86
46412;BME280;32113;42.012;24.870;2024-03-08T08:37:13;99364.41;;;9.35;74.40
46412;BME280;32113;42.012;24.870;2024-03-08T08:39:39;99361.00;;;9.29;75.57
46412;BME280;32113;42.012;24.870;2024-03-08T08:42:05;99359.25;;;9.11;76.19
46412;BME280;32113;42.012;24.870;2024-03-08T08:44:34;99357.56;;;8.99;75.62
46412;BME280;32113;42.012;24.870;2024-03-08T08:47:00;99359.28;;;8.91;77.07
46412;BME280;32113;42.012;24.870;2024-03-08T08:49:25;99359.25;;;9.03;78.26
46412;BME280;32113;42.012;24.870;2024-03-08T08:51:51;99355.03;;;9.15;77.55
46412;BME280;32113;42.012;24.870;2024-03-08T08:54:17;99355.84;;;9.25;76.30
46412;BME280;32113;42.012;24.870;2024-03-08T08:56:43;99358.41;;;8.92;75.12
46412;BME280;32113;42.012;24.870;2024-03-08T08:59:12;99357.56;;;8.98;77.02
46412;BME280;32113;42.012;24.870;2024-03-08T09:01:42;99354.97;;;8.80;75.96
46412;BME280;32113;42.012;24.870;2024-03-08T09:04:07;99355.84;;;8.89;76.97
46412;BME280;32113;42.012;24.870;2024-03-08T09:06:33;99364.38;;;8.91;76.68
46412;BME280;32113;42.012;24.870;2024-03-08T09:08:58;99364.38;;;9.02;78.09
46412;BME280;32113;42.012;24.870;2024-03-08T09:11:24;99366.09;;;9.15;79.14
46412;BME280;32113;42.012;24.870;2024-03-08T09:13:50;99362.69;;;9.29;76.61
46412;BME280;32113;42.012;24.870;2024-03-08T09:16:16;99363.53;;;9.03;74.67
46412;BME280;32113;42.012;24.870;2024-03-08T09:18:41;99355.03;;;9.07;75.88
46412;BME280;32113;42.012;24.870;2024-03-08T09:21:07;99359.28;;;9.25;76.44
46412;BME280;32113;42.012;24.870;2024-03-08T09:23:37;99363.53;;;9.42;76.24
46412;BME280;32113;42.012;24.870;2024-03-08T09:26:03;99366.09;;;9.53;74.84
46412;BME280;32113;42.012;24.870;2024-03-08T09:28:29;99360.94;;;9.71;74.99
46412;BME280;32113;42.012;24.870;2024-03-08T09:30:54;99366.06;;;9.87;73.77
46412;BME280;32113;42.012;24.870;2024-03-08T09:33:20;99372.06;;;9.66;70.83
46412;BME280;32113;42.012;24.870;2024-03-08T09:35:46;99366.09;;;9.59;72.41
46412;BME280;32113;42.012;24.870;2024-03-08T09:38:13;99363.50;;;9.73;72.58
46412;BME280;32113;42.012;24.870;2024-03-08T09:40:42;99359.19;;;9.88;72.45
46412;BME280;32113;42.012;24.870;2024-03-08T09:43:09;99359.97;;;10.10;71.19
46412;BME280;32113;42.012;24.870;2024-03-08T09:45:37;99356.50;;;10.30;71.75
46412;BME280;32113;42.012;24.870;2024-03-08T09:48:15;99355.59;;;10.40;71.05
46412;BME280;32113;42.012;24.870;2024-03-08T09:50:42;99350.41;;;10.56;68.89
46412;BME280;32113;42.012;24.870;2024-03-08T09:53:08;99351.22;;;10.67;69.17
46412;BME280;32113;42.012;24.870;2024-03-08T09:55:38;99355.44;;;10.76;68.95
46412;BME280;32113;42.012;24.870;2024-03-08T09:58:08;99351.13;;;10.78;68.02
46412;BME280;32113;42.012;24.870;2024-03-08T10:00:43;99346.06;;;10.72;66.01
46412;BME280;32113;42.012;24.870;2024-03-08T10:03:08;99352.97;;;10.57;66.76
46412;BME280;32113;42.012;24.870;2024-03-08T10:05:34;99352.13;;;10.57;67.40
46412;BME280;32113;42.012;24.870;2024-03-08T10:07:59;99349.53;;;10.64;67.90
46412;BME280;32113;42.012;24.870;2024-03-08T10:10:25;99355.50;;;10.68;67.44
46412;BME280;32113;42.012;24.870;2024-03-08T10:12:51;99346.88;;;10.80;68.26
46412;BME280;32113;42.012;24.870;2024-03-08T10:15:17;99351.06;;;10.92;67.35
46412;BME280;32113;42.012;24.870;2024-03-08T10:17:43;99352.69;;;11.04;68.07
46412;BME280;32113;42.012;24.870;2024-03-08T10:20:19;99345.75;;;11.14;68.77
46412;BME280;32113;42.012;24.870;2024-03-08T10:22:44;99343.16;;;11.20;68.17
46412;BME280;32113;42.012;24.870;2024-03-08T10:25:11;99343.91;;;11.30;66.72
46412;BME280;32113;42.012;24.870;2024-03-08T10:27:38;99343.88;;;11.35;65.90
46412;BME280;32113;42.012;24.870;2024-03-08T10:30:06;99340.47;;;11.33;66.02
46412;BME280;32113;42.012;24.870;2024-03-08T10:32:35;99331.06;;;11.32;64.98
46412;BME280;32113;42.012;24.870;2024-03-08T10:35:00;99332.91;;;11.17;65.11
46412;BME280;32113;42.012;24.870;2024-03-08T10:37:26;99340.66;;;11.12;66.75
46412;BME280;32113;42.012;24.870;2024-03-08T10:40:04;99334.66;;;11.12;67.30
46412;BME280;32113;42.012;24.870;2024-03-08T10:42:40;99332.91;;;11.14;67.65
46412;BME280;32113;42.012;24.870;2024-03-08T10:45:35;99333.75;;;11.19;67.88
46412;BME280;32113;42.012;24.870;2024-03-08T10:50:48;99333.63;;;11.30;66.20
46412;BME280;32113;42.012;24.870;2024-03-08T10:53:18;99334.47;;;11.32;65.90
46412;BME280;32113;42.012;24.870;2024-03-08T10:55:46;99333.59;;;11.35;65.82
46412;BME280;32113;42.012;24.870;2024-03-08T10:58:12;99333.59;;;11.35;66.03
46412;BME280;32113;42.012;24.870;2024-03-08T11:00:38;99321.63;;;11.34;64.98
46412;BME280;32113;42.012;24.870;2024-03-08T11:03:04;99326.72;;;11.37;65.27
46412;BME280;32113;42.012;24.870;2024-03-08T11:05:40;99331.03;;;11.36;65.22
46412;BME280;32113;42.012;24.870;2024-03-08T11:08:17;99315.53;;;11.42;64.98
46412;BME280;32113;42.012;24.870;2024-03-08T11:10:52;99321.53;;;11.43;64.33
46412;BME280;32113;42.012;24.870;2024-03-08T11:13:36;99307.91;;;11.36;62.79
46412;BME280;32113;42.012;24.870;2024-03-08T11:16:07;99309.69;;;11.29;62.59
46412;BME280;32113;42.012;24.870;2024-03-08T11:18:35;99313.06;;;11.35;63.81
46412;BME280;32113;42.012;24.870;2024-03-08T11:21:04;99313.88;;;11.38;63.87
46412;BME280;32113;42.012;24.870;2024-03-08T11:23:37;99315.53;;;11.42;63.47
46412;BME280;32113;42.012;24.870;2024-03-08T11:26:17;99313.84;;;11.43;64.14
46412;BME280;32113;42.012;24.870;2024-03-08T11:28:43;99317.25;;;11.43;64.96
46412;BME280;32113;42.012;24.870;2024-03-08T11:33:38;99313.78;;;11.49;62.37
46412;BME280;32113;42.012;24.870;2024-03-08T11:36:21;99312.94;;;11.47;62.48
46412;BME280;32113;42.012;24.870;2024-03-08T11:38:48;99318.91;;;11.49;62.83
46412;BME280;32113;42.012;24.870;2024-03-08T11:41:17;99318.09;;;11.47;63.56
46412;BME280;32113;42.012;24.870;2024-03-08T11:43:45;99313.84;;;11.43;63.93
46412;BME280;32113;42.012;24.870;2024-03-08T11:46:11;99325.03;;;11.36;64.36
46412;BME280;32113;42.012;24.870;2024-03-08T11:48:40;99332.00;;;11.24;64.54
46412;BME280;32113;42.012;24.870;2024-03-08T11:51:11;99329.50;;;11.12;65.63
46412;BME280;32113;42.012;24.870;2024-03-08T11:53:37;99327.94;;;10.95;67.02
46412;BME280;32113;42.012;24.870;2024-03-08T11:56:10;99315.25;;;10.69;68.63
46412;BME280;32113;42.012;24.870;2024-03-08T11:58:37;99311.06;;;10.58;70.11
46412;BME280;32113;42.012;24.870;2024-03-08T12:01:08;99303.38;;;10.57;69.62
46412;BME280;32113;42.012;24.870;2024-03-08T12:03:40;99299.91;;;10.62;68.96
46412;BME280;32113;42.012;24.870;2024-03-08T12:06:10;99297.41;;;10.51;70.71
46412;BME280;32113;42.012;24.870;2024-03-08T12:08:36;99306.69;;;10.71;70.29
46412;BME280;32113;42.012;24.870;2024-03-08T12:11:04;99304.03;;;10.87;69.67
46412;BME280;32113;42.012;24.870;2024-03-08T12:13:32;99303.91;;;11.01;68.93
46412;BME280;32113;42.012;24.870;2024-03-08T12:16:02;99301.16;;;11.24;68.73
46412;BME280;32113;42.012;24.870;2024-03-08T12:18:36;99294.16;;;11.40;65.67
46412;BME280;32113;42.012;24.870;2024-03-08T12:21:06;99298.63;;;11.20;65.61
46412;BME280;32113;42.012;24.870;2024-03-08T12:24:08;99297.72;;;11.28;67.50
46412;BME280;32113;42.012;24.870;2024-03-08T12:26:38;99289.06;;;11.36;65.07
46412;BME280;32113;42.012;24.870;2024-03-08T12:29:27;99286.41;;;11.43;63.84
46412;BME280;32113;42.012;24.870;2024-03-08T12:31:54;99279.56;;;11.42;63.73
46412;BME280;32113;42.012;24.870;2024-03-08T12:34:20;99287.19;;;11.53;64.20
46412;BME280;32113;42.012;24.870;2024-03-08T12:36:50;99280.94;;;11.76;63.01
46412;BME280;32113;42.012;24.870;2024-03-08T12:39:19;99269.66;;;11.87;61.87
46412;BME280;32113;42.012;24.870;2024-03-08T12:41:51;99272.25;;;11.87;62.81
46412;BME280;32113;42.012;24.870;2024-03-08T12:44:17;99271.44;;;11.83;61.84
46412;BME280;32113;42.012;24.870;2024-03-08T12:46:44;99270.47;;;11.92;62.08
46412;BME280;32113;42.012;24.870;2024-03-08T12:49:10;99277.25;;;11.99;60.92
46412;BME280;32113;42.012;24.870;2024-03-08T12:51:37;99275.44;;;12.07;60.45
46412;BME280;32113;42.012;24.870;2024-03-08T12:54:04;99276.28;;;12.09;59.68
46412;BME280;32113;42.012;24.870;2024-03-08T12:56:33;99277.94;;;12.14;60.26
46412;BME280;32113;42.012;24.870;2024-03-08T12:59:01;99269.25;;;12.22;58.28
46412;BME280;32113;42.012;24.870;2024-03-08T13:01:28;99258.09;;;12.22;58.08
46412;BME280;32113;42.012;24.870;2024-03-08T13:03:54;99262.19;;;12.37;58.33